NJE308U EGEC-EKBI
Flight info
| Callsign | NJE308U |
|---|---|
| Flight time | 1h 20m |
| Altitude | 23000 |
| Route | LUCCO Z250 HAVEN/N0455F390 DCT PETIL/N0459F410 L983 AMRAM P60 NAVIK |
| Aircraft | CL60/M-SBDE1E2E3FGHIJ1J4J5J7M3RWXYZ/LB1V1D1 |
Departure
| Time | 2026-05-04 15:38 |
|---|---|
| Airport | Campbeltown Airport (EGEC) |
Arrival
| Time | 2026-05-04 16:58 |
|---|---|
| Airport | Billund Airport (EKBI) |
| Time | Latitude | Longitude | Altitude | Speed | Heading |
|---|---|---|---|---|---|
| 2026-05-04 14:53 | 55.43631 | -5.66403 | 50 ft | 0 kts | 156° |
| 2026-05-04 15:34 | 55.43622 | -5.66353 | 50 ft | 5 kts | 108° |
| 2026-05-04 15:35 | 55.43551 | -5.66237 | 51 ft | 11 kts | 191° |
| 2026-05-04 15:35 | 55.43478 | -5.66272 | 49 ft | 7 kts | 195° |
| 2026-05-04 15:35 | 55.43465 | -5.66278 | 48 ft | 0 kts | 195° |
| 2026-05-04 15:36 | 55.43464 | -5.66279 | 48 ft | 0 kts | 195° |
| 2026-05-04 15:36 | 55.43444 | -5.66289 | 48 ft | 5 kts | 196° |
| 2026-05-04 15:37 | 55.43391 | -5.66317 | 46 ft | 7 kts | 198° |
| 2026-05-04 15:37 | 55.43371 | -5.66418 | 45 ft | 11 kts | 283° |
| 2026-05-04 15:37 | 55.43406 | -5.66631 | 43 ft | 43 kts | 285° |
| 2026-05-04 15:37 | 55.43582 | -5.67723 | 58 ft | 137 kts | 285° |
| 2026-05-04 15:38 | 55.43872 | -5.69496 | 739 ft | 165 kts | 284° |
| 2026-05-04 15:38 | 55.44155 | -5.71519 | 1673 ft | 185 kts | 285° |
| 2026-05-04 15:38 | 55.44501 | -5.73803 | 2345 ft | 201 kts | 286° |
| 2026-05-04 15:38 | 55.44850 | -5.76109 | 3070 ft | 202 kts | 286° |
| 2026-05-04 15:39 | 55.45236 | -5.78636 | 3918 ft | 233 kts | 286° |
| 2026-05-04 15:39 | 55.45680 | -5.81462 | 4975 ft | 248 kts | 289° |
| 2026-05-04 15:39 | 55.48150 | -5.85473 | 7135 ft | 269 kts | 347° |
| 2026-05-04 15:40 | 55.50013 | -5.85257 | 8154 ft | 280 kts | 17° |
| 2026-05-04 15:40 | 55.51614 | -5.83372 | 9165 ft | 291 kts | 46° |
| 2026-05-04 15:40 | 55.52560 | -5.80167 | 10165 ft | 305 kts | 74° |
| 2026-05-04 15:40 | 55.52600 | -5.76333 | 10946 ft | 334 kts | 98° |
| 2026-05-04 15:41 | 55.52065 | -5.72233 | 11661 ft | 359 kts | 103° |
| 2026-05-04 15:41 | 55.51435 | -5.67875 | 12402 ft | 373 kts | 103° |
| 2026-05-04 15:41 | 55.50790 | -5.63443 | 13165 ft | 378 kts | 103° |
| 2026-05-04 15:41 | 55.50139 | -5.58973 | 13944 ft | 381 kts | 103° |
| 2026-05-04 15:42 | 55.49477 | -5.54435 | 14734 ft | 386 kts | 103° |
| 2026-05-04 15:42 | 55.48802 | -5.49829 | 15536 ft | 391 kts | 103° |
| 2026-05-04 15:42 | 55.48121 | -5.45194 | 16349 ft | 395 kts | 103° |
| 2026-05-04 15:42 | 55.47433 | -5.40520 | 17168 ft | 400 kts | 103° |
| 2026-05-04 15:43 | 55.46733 | -5.35784 | 18000 ft | 405 kts | 103° |
| 2026-05-04 15:43 | 55.46023 | -5.30986 | 18838 ft | 412 kts | 104° |
| 2026-05-04 15:43 | 55.45295 | -5.26080 | 19718 ft | 417 kts | 104° |
| 2026-05-04 15:43 | 55.44560 | -5.21148 | 20614 ft | 421 kts | 104° |
| 2026-05-04 15:44 | 55.43823 | -5.16216 | 21480 ft | 425 kts | 104° |
| 2026-05-04 15:44 | 55.43071 | -5.11199 | 22307 ft | 429 kts | 104° |
| 2026-05-04 15:44 | 55.42295 | -5.06037 | 22868 ft | 438 kts | 104° |
| 2026-05-04 15:44 | 55.41510 | -5.00834 | 23039 ft | 442 kts | 104° |
| 2026-05-04 15:45 | 55.40726 | -4.95649 | 23055 ft | 439 kts | 104° |
| 2026-05-04 15:45 | 55.39954 | -4.90564 | 23041 ft | 435 kts | 104° |
| 2026-05-04 15:45 | 55.39169 | -4.85403 | 23044 ft | 433 kts | 104° |
| 2026-05-04 15:45 | 55.38393 | -4.80320 | 23041 ft | 433 kts | 104° |
| 2026-05-04 15:46 | 55.37611 | -4.75217 | 23037 ft | 433 kts | 104° |
| 2026-05-04 15:46 | 55.36827 | -4.70116 | 23042 ft | 434 kts | 104° |
| 2026-05-04 15:46 | 55.36052 | -4.65081 | 23040 ft | 433 kts | 104° |
| 2026-05-04 15:46 | 55.35267 | -4.60008 | 23034 ft | 432 kts | 104° |
| 2026-05-04 15:47 | 55.34627 | -4.54849 | 23049 ft | 430 kts | 95° |
| 2026-05-04 15:47 | 55.34431 | -4.49618 | 23025 ft | 430 kts | 91° |
| 2026-05-04 15:47 | 55.34266 | -4.44405 | 23026 ft | 430 kts | 91° |
| 2026-05-04 15:47 | 55.34092 | -4.39160 | 23025 ft | 429 kts | 91° |
| 2026-05-04 15:48 | 55.33918 | -4.33972 | 23015 ft | 430 kts | 92° |
| 2026-05-04 15:48 | 55.33741 | -4.28758 | 23014 ft | 430 kts | 92° |
| 2026-05-04 15:48 | 55.33378 | -4.18323 | 23010 ft | 429 kts | 92° |
| 2026-05-04 15:49 | 55.33194 | -4.13123 | 23011 ft | 429 kts | 92° |
| 2026-05-04 15:49 | 55.33014 | -4.07893 | 23003 ft | 428 kts | 91° |
| 2026-05-04 15:49 | 55.33274 | -4.02735 | 23011 ft | 424 kts | 77° |
| 2026-05-04 15:49 | 55.33919 | -3.97743 | 22989 ft | 424 kts | 75° |
| 2026-05-04 15:50 | 55.34572 | -3.92678 | 22991 ft | 424 kts | 76° |
| 2026-05-04 15:50 | 55.35221 | -3.87607 | 22993 ft | 424 kts | 76° |
| 2026-05-04 15:50 | 55.35860 | -3.82589 | 22992 ft | 425 kts | 76° |
| 2026-05-04 15:50 | 55.36503 | -3.77535 | 22997 ft | 426 kts | 75° |
| 2026-05-04 15:51 | 55.37143 | -3.72468 | 22999 ft | 427 kts | 76° |
| 2026-05-04 15:51 | 55.37786 | -3.67366 | 22999 ft | 427 kts | 76° |
| 2026-05-04 15:51 | 55.38418 | -3.62335 | 22994 ft | 428 kts | 75° |
| 2026-05-04 15:51 | 55.39054 | -3.57250 | 22991 ft | 428 kts | 75° |
| 2026-05-04 15:52 | 55.39698 | -3.52084 | 22986 ft | 429 kts | 75° |
| 2026-05-04 15:52 | 55.40329 | -3.47003 | 22986 ft | 430 kts | 75° |
| 2026-05-04 15:52 | 55.40961 | -3.41893 | 22985 ft | 430 kts | 75° |
| 2026-05-04 15:52 | 55.41591 | -3.36777 | 22992 ft | 430 kts | 75° |
| 2026-05-04 15:53 | 55.42222 | -3.31638 | 22980 ft | 431 kts | 76° |
| 2026-05-04 15:53 | 55.42852 | -3.26488 | 22982 ft | 431 kts | 76° |
| 2026-05-04 15:53 | 55.43481 | -3.21325 | 22988 ft | 431 kts | 77° |
| 2026-05-04 15:53 | 55.44100 | -3.16226 | 22993 ft | 432 kts | 76° |
| 2026-05-04 15:54 | 55.44723 | -3.11074 | 22983 ft | 432 kts | 76° |
| 2026-05-04 15:54 | 55.45352 | -3.05860 | 22988 ft | 432 kts | 76° |
| 2026-05-04 15:54 | 55.45968 | -3.00683 | 22980 ft | 433 kts | 77° |
| 2026-05-04 15:54 | 55.46489 | -2.95476 | 22985 ft | 433 kts | 79° |
| 2026-05-04 15:55 | 55.46968 | -2.90292 | 23032 ft | 433 kts | 79° |
| 2026-05-04 15:55 | 55.47449 | -2.85072 | 23271 ft | 438 kts | 79° |
| 2026-05-04 15:55 | 55.47940 | -2.79740 | 23882 ft | 442 kts | 79° |
| 2026-05-04 15:55 | 55.48423 | -2.74444 | 24729 ft | 442 kts | 79° |
| 2026-05-04 15:56 | 55.48909 | -2.69111 | 25541 ft | 443 kts | 79° |
| 2026-05-04 15:56 | 55.49397 | -2.63720 | 26252 ft | 446 kts | 79° |
| 2026-05-04 15:56 | 55.49881 | -2.58344 | 26850 ft | 450 kts | 79° |
| 2026-05-04 15:56 | 55.50367 | -2.52919 | 27353 ft | 456 kts | 79° |
| 2026-05-04 15:57 | 55.50867 | -2.47313 | 27820 ft | 462 kts | 78° |
| 2026-05-04 15:57 | 55.51362 | -2.41735 | 28334 ft | 466 kts | 78° |
| 2026-05-04 15:57 | 55.51865 | -2.36028 | 28876 ft | 468 kts | 78° |
| 2026-05-04 15:57 | 55.52362 | -2.30344 | 29375 ft | 470 kts | 79° |
| 2026-05-04 15:58 | 55.52855 | -2.24696 | 29909 ft | 471 kts | 79° |
| 2026-05-04 15:58 | 55.53350 | -2.18975 | 30500 ft | 470 kts | 79° |
| 2026-05-04 15:58 | 55.53841 | -2.13272 | 31083 ft | 469 kts | 79° |
| 2026-05-04 15:58 | 55.54327 | -2.07594 | 31670 ft | 467 kts | 79° |
| 2026-05-04 15:59 | 55.54810 | -2.01932 | 32257 ft | 465 kts | 79° |
| 2026-05-04 15:59 | 55.55284 | -1.96332 | 32733 ft | 465 kts | 79° |
| 2026-05-04 15:59 | 55.55755 | -1.90742 | 33238 ft | 464 kts | 79° |
| 2026-05-04 15:59 | 55.56227 | -1.85107 | 33747 ft | 462 kts | 79° |
| 2026-05-04 16:00 | 55.56687 | -1.79584 | 34232 ft | 461 kts | 79° |
| 2026-05-04 16:00 | 55.57152 | -1.73966 | 34687 ft | 460 kts | 79° |
| 2026-05-04 16:00 | 55.57613 | -1.68367 | 35102 ft | 459 kts | 80° |
| 2026-05-04 16:00 | 55.58069 | -1.62807 | 35466 ft | 458 kts | 80° |
| 2026-05-04 16:01 | 55.58517 | -1.57292 | 35791 ft | 458 kts | 80° |
| 2026-05-04 16:01 | 55.58964 | -1.51773 | 36094 ft | 458 kts | 80° |
| 2026-05-04 16:01 | 55.59416 | -1.46161 | 36395 ft | 459 kts | 80° |
| 2026-05-04 16:01 | 55.59861 | -1.40608 | 36676 ft | 459 kts | 80° |
| 2026-05-04 16:02 | 55.60302 | -1.35057 | 37072 ft | 458 kts | 80° |
| 2026-05-04 16:02 | 55.60743 | -1.29482 | 37453 ft | 458 kts | 81° |
| 2026-05-04 16:02 | 55.61541 | -1.19298 | 37983 ft | 458 kts | 81° |
| 2026-05-04 16:03 | 55.61971 | -1.13770 | 38249 ft | 458 kts | 81° |
| 2026-05-04 16:03 | 55.62401 | -1.08207 | 38456 ft | 459 kts | 81° |
| 2026-05-04 16:03 | 55.62831 | -1.02609 | 38714 ft | 459 kts | 81° |
| 2026-05-04 16:03 | 55.63257 | -0.97022 | 38938 ft | 459 kts | 81° |
| 2026-05-04 16:04 | 55.63681 | -0.91442 | 38983 ft | 463 kts | 81° |
| 2026-05-04 16:04 | 55.64940 | -0.74633 | 38992 ft | 472 kts | 81° |
| 2026-05-04 16:05 | 55.65791 | -0.63074 | 38991 ft | 474 kts | 82° |
| 2026-05-04 16:06 | 55.67043 | -0.45810 | 38988 ft | 473 kts | 81° |
| 2026-05-04 16:07 | 55.68675 | -0.22753 | 38994 ft | 472 kts | 82° |
| 2026-05-04 16:08 | 55.70262 | 0.00301 | 38999 ft | 473 kts | 82° |
| 2026-05-04 16:09 | 55.72188 | 0.29185 | 39001 ft | 475 kts | 82° |
| 2026-05-04 16:10 | 55.73683 | 0.52365 | 39006 ft | 474 kts | 82° |
| 2026-05-04 16:11 | 55.75131 | 0.75492 | 39014 ft | 475 kts | 83° |
| 2026-05-04 16:12 | 55.77232 | 1.10396 | 39010 ft | 476 kts | 83° |
| 2026-05-04 16:13 | 55.78580 | 1.33720 | 39010 ft | 476 kts | 83° |
| 2026-05-04 16:14 | 55.79879 | 1.56970 | 39008 ft | 475 kts | 83° |
| 2026-05-04 16:16 | 55.81444 | 1.86136 | 39016 ft | 477 kts | 84° |
| 2026-05-04 16:17 | 55.82949 | 2.15474 | 39007 ft | 478 kts | 84° |
| 2026-05-04 16:18 | 55.84101 | 2.38934 | 38999 ft | 478 kts | 84° |
| 2026-05-04 16:19 | 55.85477 | 2.68237 | 39009 ft | 478 kts | 85° |
| 2026-05-04 16:20 | 55.86785 | 2.97607 | 39016 ft | 478 kts | 85° |
| 2026-05-04 16:22 | 55.88025 | 3.27009 | 39006 ft | 478 kts | 85° |
| 2026-05-04 16:23 | 55.89418 | 3.62279 | 39023 ft | 478 kts | 85° |
| 2026-05-04 16:25 | 55.90715 | 3.97715 | 39013 ft | 481 kts | 86° |
| 2026-05-04 16:26 | 55.92101 | 4.39145 | 39012 ft | 480 kts | 86° |
| 2026-05-04 16:28 | 55.93006 | 4.68757 | 39020 ft | 481 kts | 87° |
| 2026-05-04 16:29 | 55.93982 | 5.10328 | 39012 ft | 480 kts | 89° |
| 2026-05-04 16:31 | 55.94198 | 5.39959 | 39003 ft | 481 kts | 89° |
| 2026-05-04 16:32 | 55.94371 | 5.75663 | 39013 ft | 482 kts | 90° |
| 2026-05-04 16:33 | 55.94430 | 5.99462 | 38947 ft | 485 kts | 89° |
| 2026-05-04 16:34 | 55.94443 | 6.11459 | 37949 ft | 482 kts | 89° |
| 2026-05-04 16:34 | 55.94445 | 6.17350 | 37407 ft | 477 kts | 89° |
| 2026-05-04 16:35 | 55.94434 | 6.34832 | 35745 ft | 469 kts | 89° |
| 2026-05-04 16:35 | 55.94398 | 6.52222 | 34049 ft | 467 kts | 89° |
| 2026-05-04 16:36 | 55.94381 | 6.57967 | 33499 ft | 469 kts | 89° |
| 2026-05-04 16:36 | 55.94080 | 6.69488 | 32372 ft | 463 kts | 96° |
| 2026-05-04 16:37 | 55.93436 | 6.80748 | 31268 ft | 453 kts | 96° |
| 2026-05-04 16:37 | 55.93118 | 6.86296 | 30730 ft | 449 kts | 95° |
| 2026-05-04 16:37 | 55.92472 | 6.97461 | 29642 ft | 469 kts | 96° |
| 2026-05-04 16:38 | 55.91788 | 7.09133 | 28517 ft | 474 kts | 96° |
| 2026-05-04 16:39 | 55.90760 | 7.26351 | 26849 ft | 465 kts | 96° |
| 2026-05-04 16:39 | 55.90073 | 7.37664 | 25751 ft | 458 kts | 96° |
| 2026-05-04 16:40 | 55.89383 | 7.48869 | 24667 ft | 453 kts | 96° |
| 2026-05-04 16:40 | 55.88691 | 7.59942 | 23595 ft | 448 kts | 96° |
| 2026-05-04 16:41 | 55.87999 | 7.70873 | 22531 ft | 442 kts | 97° |
| 2026-05-04 16:41 | 55.86962 | 7.87000 | 20960 ft | 434 kts | 97° |
| 2026-05-04 16:42 | 55.86250 | 8.02682 | 19409 ft | 416 kts | 91° |
| 2026-05-04 16:43 | 55.86167 | 8.12746 | 18409 ft | 398 kts | 91° |
| 2026-05-04 16:43 | 55.86076 | 8.22339 | 17487 ft | 389 kts | 91° |
| 2026-05-04 16:43 | 55.86028 | 8.27153 | 17036 ft | 389 kts | 91° |
| 2026-05-04 16:44 | 55.85818 | 8.46085 | 15181 ft | 378 kts | 91° |
| 2026-05-04 16:45 | 55.85704 | 8.55335 | 14302 ft | 373 kts | 91° |
| 2026-05-04 16:46 | 55.85524 | 8.68978 | 12977 ft | 357 kts | 92° |
| 2026-05-04 16:46 | 55.85402 | 8.77587 | 12153 ft | 343 kts | 92° |
| 2026-05-04 16:47 | 55.85280 | 8.85854 | 11351 ft | 330 kts | 92° |
| 2026-05-04 16:47 | 55.85156 | 8.93846 | 10590 ft | 319 kts | 92° |
| 2026-05-04 16:48 | 55.84969 | 9.05345 | 9499 ft | 302 kts | 91° |
| 2026-05-04 16:48 | 55.84907 | 9.09035 | 9112 ft | 300 kts | 91° |
| 2026-05-04 16:49 | 55.84781 | 9.16315 | 8416 ft | 291 kts | 91° |
| 2026-05-04 16:49 | 55.84654 | 9.23402 | 7731 ft | 283 kts | 91° |
| 2026-05-04 16:50 | 55.84525 | 9.30371 | 7043 ft | 284 kts | 91° |
| 2026-05-04 16:50 | 55.84393 | 9.37326 | 6374 ft | 278 kts | 91° |
| 2026-05-04 16:51 | 55.84260 | 9.44116 | 5715 ft | 275 kts | 91° |
| 2026-05-04 16:51 | 55.84001 | 9.47487 | 5348 ft | 276 kts | 108° |
| 2026-05-04 16:51 | 55.81632 | 9.52497 | 4410 ft | 264 kts | 155° |
| 2026-05-04 16:52 | 55.78191 | 9.52988 | 3444 ft | 242 kts | 199° |
| 2026-05-04 16:52 | 55.76688 | 9.51966 | 3381 ft | 221 kts | 215° |
| 2026-05-04 16:53 | 55.75084 | 9.47948 | 3246 ft | 197 kts | 259° |
| 2026-05-04 16:53 | 55.74804 | 9.40672 | 2709 ft | 189 kts | 268° |
| 2026-05-04 16:54 | 55.74737 | 9.38432 | 2481 ft | 178 kts | 268° |
| 2026-05-04 16:55 | 55.74506 | 9.30877 | 1726 ft | 137 kts | 270° |
| 2026-05-04 16:55 | 55.74417 | 9.27750 | 1371 ft | 123 kts | 270° |
| 2026-05-04 16:56 | 55.74327 | 9.24784 | 1029 ft | 120 kts | 268° |
| 2026-05-04 16:56 | 55.74188 | 9.20419 | 541 ft | 118 kts | 269° |
| 2026-05-04 16:57 | 55.74159 | 9.18963 | 399 ft | 118 kts | 264° |
| 2026-05-04 16:57 | 55.74065 | 9.16302 | 234 ft | 80 kts | 267° |
| 2026-05-04 16:58 | 55.73936 | 9.14819 | 224 ft | 22 kts | 238° |
| 2026-05-04 16:58 | 55.73912 | 9.14749 | 224 ft | 0 kts | 237° |
| 2026-05-04 17:00 | 55.73891 | 9.14678 | 224 ft | 9 kts | 246° |
| 2026-05-04 17:00 | 55.73838 | 9.14080 | 219 ft | 22 kts | 266° |
| 2026-05-04 17:01 | 55.73825 | 9.13723 | 217 ft | 10 kts | 265° |
| 2026-05-04 17:01 | 55.73785 | 9.13551 | 218 ft | 9 kts | 195° |
| 2026-05-04 17:02 | 55.73726 | 9.13312 | 218 ft | 9 kts | 251° |
| 2026-05-04 17:02 | 55.73692 | 9.13359 | 218 ft | 5 kts | 85° |
| 2026-05-04 17:03 | 55.73692 | 9.13364 | 217 ft | 0 kts | 85° |